sensor_id;sensor_type;location;lat;lon;timestamp;temperature;humidity
3628;DHT22;1830;49.000;12.074;2024-03-02T00:00:47;5.70;99.90
3628;DHT22;1830;49.000;12.074;2024-03-02T00:03:15;5.70;99.90
3628;DHT22;1830;49.000;12.074;2024-03-02T00:05:43;5.70;99.90
3628;DHT22;1830;49.000;12.074;2024-03-02T00:08:13;5.70;99.90
3628;DHT22;1830;49.000;12.074;2024-03-02T00:10:44;5.70;99.90
3628;DHT22;1830;49.000;12.074;2024-03-02T00:13:12;5.70;99.90
3628;DHT22;1830;49.000;12.074;2024-03-02T00:15:45;5.70;99.90
3628;DHT22;1830;49.000;12.074;2024-03-02T00:18:14;5.60;99.90
3628;DHT22;1830;49.000;12.074;2024-03-02T00:20:42;5.60;99.90
3628;DHT22;1830;49.000;12.074;2024-03-02T00:23:10;5.60;99.90
3628;DHT22;1830;49.000;12.074;2024-03-02T00:25:41;5.70;99.90
3628;DHT22;1830;49.000;12.074;2024-03-02T00:28:14;5.70;99.90
3628;DHT22;1830;49.000;12.074;2024-03-02T00:30:52;5.70;99.90
3628;DHT22;1830;49.000;12.074;2024-03-02T00:33:21;5.70;99.90
3628;DHT22;1830;49.000;12.074;2024-03-02T00:35:50;5.70;99.90
3628;DHT22;1830;49.000;12.074;2024-03-02T00:38:17;5.70;99.90
3628;DHT22;1830;49.000;12.074;2024-03-02T00:40:44;5.70;99.90
3628;DHT22;1830;49.000;12.074;2024-03-02T00:46:19;5.60;99.90
3628;DHT22;1830;49.000;12.074;2024-03-02T00:48:53;5.70;99.90
3628;DHT22;1830;49.000;12.074;2024-03-02T00:51:22;5.60;99.90
3628;DHT22;1830;49.000;12.074;2024-03-02T00:53:50;5.60;99.90
3628;DHT22;1830;49.000;12.074;2024-03-02T00:56:18;5.60;99.90
3628;DHT22;1830;49.000;12.074;2024-03-02T00:58:44;5.50;99.90
3628;DHT22;1830;49.000;12.074;2024-03-02T01:01:11;5.60;99.90
3628;DHT22;1830;49.000;12.074;2024-03-02T01:03:38;5.60;99.90
3628;DHT22;1830;49.000;12.074;2024-03-02T01:06:07;5.50;99.90
3628;DHT22;1830;49.000;12.074;2024-03-02T01:08:35;5.50;99.90
3628;DHT22;1830;49.000;12.074;2024-03-02T01:11:02;5.60;99.90
3628;DHT22;1830;49.000;12.074;2024-03-02T01:13:31;5.60;99.90
3628;DHT22;1830;49.000;12.074;2024-03-02T01:15:58;5.60;99.90
3628;DHT22;1830;49.000;12.074;2024-03-02T01:18:25;5.60;99.90
3628;DHT22;1830;49.000;12.074;2024-03-02T01:20:52;5.60;99.90
3628;DHT22;1830;49.000;12.074;2024-03-02T01:23:21;5.60;99.90
3628;DHT22;1830;49.000;12.074;2024-03-02T01:25:49;5.60;99.90
3628;DHT22;1830;49.000;12.074;2024-03-02T01:28:17;5.50;99.90
3628;DHT22;1830;49.000;12.074;2024-03-02T01:30:44;5.50;99.90
3628;DHT22;1830;49.000;12.074;2024-03-02T01:33:11;5.40;99.90
3628;DHT22;1830;49.000;12.074;2024-03-02T01:35:38;5.40;99.90
3628;DHT22;1830;49.000;12.074;2024-03-02T01:38:05;5.40;99.90
3628;DHT22;1830;49.000;12.074;2024-03-02T01:40:33;5.30;99.90
3628;DHT22;1830;49.000;12.074;2024-03-02T01:43:01;5.30;99.90
3628;DHT22;1830;49.000;12.074;2024-03-02T01:45:28;5.30;99.90
3628;DHT22;1830;49.000;12.074;2024-03-02T01:47:55;5.30;99.90
3628;DHT22;1830;49.000;12.074;2024-03-02T01:50:26;5.30;99.90
3628;DHT22;1830;49.000;12.074;2024-03-02T01:52:54;5.30;99.90
3628;DHT22;1830;49.000;12.074;2024-03-02T01:55:21;5.30;99.90
3628;DHT22;1830;49.000;12.074;2024-03-02T01:57:48;5.40;99.90
3628;DHT22;1830;49.000;12.074;2024-03-02T02:00:18;5.40;99.90
3628;DHT22;1830;49.000;12.074;2024-03-02T02:02:45;5.50;99.90
3628;DHT22;1830;49.000;12.074;2024-03-02T02:05:12;5.40;99.90
3628;DHT22;1830;49.000;12.074;2024-03-02T02:07:40;5.40;99.90
3628;DHT22;1830;49.000;12.074;2024-03-02T02:10:07;5.50;99.90
3628;DHT22;1830;49.000;12.074;2024-03-02T02:12:35;5.40;99.90
3628;DHT22;1830;49.000;12.074;2024-03-02T02:15:01;5.50;99.90
3628;DHT22;1830;49.000;12.074;2024-03-02T02:17:30;5.50;99.90
3628;DHT22;1830;49.000;12.074;2024-03-02T02:19:56;5.50;99.90
3628;DHT22;1830;49.000;12.074;2024-03-02T02:22:24;5.50;99.90
3628;DHT22;1830;49.000;12.074;2024-03-02T02:24:51;5.60;99.90
3628;DHT22;1830;49.000;12.074;2024-03-02T02:27:18;5.50;99.90
3628;DHT22;1830;49.000;12.074;2024-03-02T02:29:45;5.50;99.90
3628;DHT22;1830;49.000;12.074;2024-03-02T02:32:12;5.60;99.90
3628;DHT22;1830;49.000;12.074;2024-03-02T02:34:39;5.60;99.90
3628;DHT22;1830;49.000;12.074;2024-03-02T02:37:05;5.60;99.90
3628;DHT22;1830;49.000;12.074;2024-03-02T02:39:35;5.60;99.90
3628;DHT22;1830;49.000;12.074;2024-03-02T02:42:01;5.50;99.90
3628;DHT22;1830;49.000;12.074;2024-03-02T02:44:28;5.60;99.90
3628;DHT22;1830;49.000;12.074;2024-03-02T02:46:55;5.60;99.90
3628;DHT22;1830;49.000;12.074;2024-03-02T02:49:22;5.60;99.90
3628;DHT22;1830;49.000;12.074;2024-03-02T02:51:49;5.70;99.90
3628;DHT22;1830;49.000;12.074;2024-03-02T02:54:15;5.70;99.90
3628;DHT22;1830;49.000;12.074;2024-03-02T02:56:44;5.70;99.90
3628;DHT22;1830;49.000;12.074;2024-03-02T02:59:11;5.60;99.90
3628;DHT22;1830;49.000;12.074;2024-03-02T03:01:37;5.60;99.90
3628;DHT22;1830;49.000;12.074;2024-03-02T03:04:04;5.50;99.90
3628;DHT22;1830;49.000;12.074;2024-03-02T03:06:31;5.50;99.90
3628;DHT22;1830;49.000;12.074;2024-03-02T03:08:57;5.60;99.90
3628;DHT22;1830;49.000;12.074;2024-03-02T03:11:24;5.60;99.90
3628;DHT22;1830;49.000;12.074;2024-03-02T03:13:53;5.50;99.90
3628;DHT22;1830;49.000;12.074;2024-03-02T03:16:20;5.60;99.90
3628;DHT22;1830;49.000;12.074;2024-03-02T03:18:47;5.60;99.90
3628;DHT22;1830;49.000;12.074;2024-03-02T03:21:15;5.50;99.90
3628;DHT22;1830;49.000;12.074;2024-03-02T03:23:42;5.50;99.90
3628;DHT22;1830;49.000;12.074;2024-03-02T03:26:09;5.50;99.90
3628;DHT22;1830;49.000;12.074;2024-03-02T03:28:35;5.60;99.90
3628;DHT22;1830;49.000;12.074;2024-03-02T03:31:04;5.50;99.90
3628;DHT22;1830;49.000;12.074;2024-03-02T03:33:31;5.50;99.90
3628;DHT22;1830;49.000;12.074;2024-03-02T03:35:57;5.50;99.90
3628;DHT22;1830;49.000;12.074;2024-03-02T03:38:24;5.50;99.90
3628;DHT22;1830;49.000;12.074;2024-03-02T03:40:51;5.50;99.90
3628;DHT22;1830;49.000;12.074;2024-03-02T03:43:18;5.60;99.90
3628;DHT22;1830;49.000;12.074;2024-03-02T03:45:44;5.50;99.90
3628;DHT22;1830;49.000;12.074;2024-03-02T03:48:12;5.60;99.90
3628;DHT22;1830;49.000;12.074;2024-03-02T03:50:39;5.60;99.90
3628;DHT22;1830;49.000;12.074;2024-03-02T03:53:06;5.60;99.90
3628;DHT22;1830;49.000;12.074;2024-03-02T03:55:33;5.50;99.90
3628;DHT22;1830;49.000;12.074;2024-03-02T03:58:00;5.50;99.90
3628;DHT22;1830;49.000;12.074;2024-03-02T04:00:27;5.50;99.90
3628;DHT22;1830;49.000;12.074;2024-03-02T04:02:54;5.50;99.90
3628;DHT22;1830;49.000;12.074;2024-03-02T04:05:23;5.40;99.90
3628;DHT22;1830;49.000;12.074;2024-03-02T04:07:50;5.40;99.90
3628;DHT22;1830;49.000;12.074;2024-03-02T04:10:16;5.40;99.90
3628;DHT22;1830;49.000;12.074;2024-03-02T04:12:43;5.40;99.90
3628;DHT22;1830;49.000;12.074;2024-03-02T04:15:10;5.40;99.90
3628;DHT22;1830;49.000;12.074;2024-03-02T04:17:37;5.40;99.90
3628;DHT22;1830;49.000;12.074;2024-03-02T04:20:04;5.40;99.90
3628;DHT22;1830;49.000;12.074;2024-03-02T04:22:34;5.40;99.90
3628;DHT22;1830;49.000;12.074;2024-03-02T04:25:01;5.40;99.90
3628;DHT22;1830;49.000;12.074;2024-03-02T04:27:30;5.50;99.90
3628;DHT22;1830;49.000;12.074;2024-03-02T04:29:57;5.60;99.90
3628;DHT22;1830;49.000;12.074;2024-03-02T04:32:26;5.60;99.90
3628;DHT22;1830;49.000;12.074;2024-03-02T04:34:53;5.60;99.90
3628;DHT22;1830;49.000;12.074;2024-03-02T04:37:20;5.70;99.90
3628;DHT22;1830;49.000;12.074;2024-03-02T04:39:48;5.60;99.90
3628;DHT22;1830;49.000;12.074;2024-03-02T04:42:15;5.70;99.90
3628;DHT22;1830;49.000;12.074;2024-03-02T04:44:41;5.60;99.90
3628;DHT22;1830;49.000;12.074;2024-03-02T04:47:08;5.70;99.90
3628;DHT22;1830;49.000;12.074;2024-03-02T04:49:35;5.70;99.90
3628;DHT22;1830;49.000;12.074;2024-03-02T04:52:02;5.70;99.90
3628;DHT22;1830;49.000;12.074;2024-03-02T04:54:29;5.70;99.90
3628;DHT22;1830;49.000;12.074;2024-03-02T04:56:57;5.80;99.90
3628;DHT22;1830;49.000;12.074;2024-03-02T04:59:24;5.70;99.90
3628;DHT22;1830;49.000;12.074;2024-03-02T05:01:50;5.70;99.90
3628;DHT22;1830;49.000;12.074;2024-03-02T05:04:17;5.80;99.90
3628;DHT22;1830;49.000;12.074;2024-03-02T05:06:44;5.80;99.90
3628;DHT22;1830;49.000;12.074;2024-03-02T05:09:17;5.80;99.90
3628;DHT22;1830;49.000;12.074;2024-03-02T05:11:44;5.80;99.90
3628;DHT22;1830;49.000;12.074;2024-03-02T05:14:39;5.80;99.90
3628;DHT22;1830;49.000;12.074;2024-03-02T05:17:06;5.80;99.90
3628;DHT22;1830;49.000;12.074;2024-03-02T05:19:33;5.80;99.90
3628;DHT22;1830;49.000;12.074;2024-03-02T05:21:59;5.90;99.90
3628;DHT22;1830;49.000;12.074;2024-03-02T05:24:26;5.90;99.90
3628;DHT22;1830;49.000;12.074;2024-03-02T05:26:53;5.90;99.90
3628;DHT22;1830;49.000;12.074;2024-03-02T05:29:20;5.90;99.90
3628;DHT22;1830;49.000;12.074;2024-03-02T05:31:48;5.90;99.90
3628;DHT22;1830;49.000;12.074;2024-03-02T05:34:15;5.90;99.90
3628;DHT22;1830;49.000;12.074;2024-03-02T05:36:42;6.00;99.90
3628;DHT22;1830;49.000;12.074;2024-03-02T05:39:09;6.00;99.90
3628;DHT22;1830;49.000;12.074;2024-03-02T05:41:36;6.00;99.90
3628;DHT22;1830;49.000;12.074;2024-03-02T05:44:03;6.00;99.90
3628;DHT22;1830;49.000;12.074;2024-03-02T05:46:30;6.00;99.90
3628;DHT22;1830;49.000;12.074;2024-03-02T05:48:59;6.00;99.90
3628;DHT22;1830;49.000;12.074;2024-03-02T05:51:25;6.00;99.90
3628;DHT22;1830;49.000;12.074;2024-03-02T05:53:52;6.00;99.90
3628;DHT22;1830;49.000;12.074;2024-03-02T05:56:19;6.00;99.90
3628;DHT22;1830;49.000;12.074;2024-03-02T05:58:45;6.00;99.90
3628;DHT22;1830;49.000;12.074;2024-03-02T06:01:23;6.00;99.90
3628;DHT22;1830;49.000;12.074;2024-03-02T06:03:54;6.00;99.90
3628;DHT22;1830;49.000;12.074;2024-03-02T06:06:22;6.00;99.90
3628;DHT22;1830;49.000;12.074;2024-03-02T06:08:49;6.00;99.90
3628;DHT22;1830;49.000;12.074;2024-03-02T06:11:15;6.00;99.90
3628;DHT22;1830;49.000;12.074;2024-03-02T06:13:42;6.00;99.90
3628;DHT22;1830;49.000;12.074;2024-03-02T06:16:09;6.00;99.90
3628;DHT22;1830;49.000;12.074;2024-03-02T06:18:36;6.00;99.90
3628;DHT22;1830;49.000;12.074;2024-03-02T06:21:03;6.00;99.90
3628;DHT22;1830;49.000;12.074;2024-03-02T06:23:31;6.00;99.90
3628;DHT22;1830;49.000;12.074;2024-03-02T06:25:58;6.00;99.90
3628;DHT22;1830;49.000;12.074;2024-03-02T06:28:25;5.90;99.90
3628;DHT22;1830;49.000;12.074;2024-03-02T06:30:52;5.90;99.90
3628;DHT22;1830;49.000;12.074;2024-03-02T06:33:19;5.90;99.90
3628;DHT22;1830;49.000;12.074;2024-03-02T06:35:46;5.90;99.90
3628;DHT22;1830;49.000;12.074;2024-03-02T06:38:14;5.90;99.90
3628;DHT22;1830;49.000;12.074;2024-03-02T06:40:42;6.00;99.90
3628;DHT22;1830;49.000;12.074;2024-03-02T06:43:09;6.00;99.90
3628;DHT22;1830;49.000;12.074;2024-03-02T06:45:36;6.00;99.90
3628;DHT22;1830;49.000;12.074;2024-03-02T06:48:04;6.00;99.90
3628;DHT22;1830;49.000;12.074;2024-03-02T06:50:30;6.00;99.90
3628;DHT22;1830;49.000;12.074;2024-03-02T06:52:57;6.00;99.90
3628;DHT22;1830;49.000;12.074;2024-03-02T06:55:24;6.10;99.90
3628;DHT22;1830;49.000;12.074;2024-03-02T06:57:52;6.00;99.90
3628;DHT22;1830;49.000;12.074;2024-03-02T07:00:19;5.90;99.90
3628;DHT22;1830;49.000;12.074;2024-03-02T07:02:46;5.90;99.90
3628;DHT22;1830;49.000;12.074;2024-03-02T07:05:13;6.00;99.90
3628;DHT22;1830;49.000;12.074;2024-03-02T07:07:40;6.00;99.90
3628;DHT22;1830;49.000;12.074;2024-03-02T07:10:07;5.90;99.90
3628;DHT22;1830;49.000;12.074;2024-03-02T07:12:34;5.90;99.90
3628;DHT22;1830;49.000;12.074;2024-03-02T07:15:03;5.80;99.90
3628;DHT22;1830;49.000;12.074;2024-03-02T07:17:55;5.80;99.90
3628;DHT22;1830;49.000;12.074;2024-03-02T07:20:22;5.80;99.90
3628;DHT22;1830;49.000;12.074;2024-03-02T07:22:49;5.80;99.90
3628;DHT22;1830;49.000;12.074;2024-03-02T07:25:16;5.80;99.90
3628;DHT22;1830;49.000;12.074;2024-03-02T07:27:42;5.90;99.90
3628;DHT22;1830;49.000;12.074;2024-03-02T07:30:14;5.90;99.90
3628;DHT22;1830;49.000;12.074;2024-03-02T07:32:42;5.80;99.90
3628;DHT22;1830;49.000;12.074;2024-03-02T07:35:11;5.80;99.90
3628;DHT22;1830;49.000;12.074;2024-03-02T07:37:39;5.80;99.90
3628;DHT22;1830;49.000;12.074;2024-03-02T07:40:06;5.90;99.90
3628;DHT22;1830;49.000;12.074;2024-03-02T07:42:37;5.90;99.90
3628;DHT22;1830;49.000;12.074;2024-03-02T07:45:04;5.90;99.90
3628;DHT22;1830;49.000;12.074;2024-03-02T07:47:33;5.90;99.90
3628;DHT22;1830;49.000;12.074;2024-03-02T07:50:00;5.80;99.90
3628;DHT22;1830;49.000;12.074;2024-03-02T07:52:28;6.00;99.90
3628;DHT22;1830;49.000;12.074;2024-03-02T07:54:55;5.90;99.90
3628;DHT22;1830;49.000;12.074;2024-03-02T07:57:25;6.00;99.90
3628;DHT22;1830;49.000;12.074;2024-03-02T07:59:52;6.10;99.90
3628;DHT22;1830;49.000;12.074;2024-03-02T08:02:19;6.00;99.90
3628;DHT22;1830;49.000;12.074;2024-03-02T08:04:47;6.10;99.90
3628;DHT22;1830;49.000;12.074;2024-03-02T08:07:15;6.10;99.90
3628;DHT22;1830;49.000;12.074;2024-03-02T08:09:42;6.00;99.90
3628;DHT22;1830;49.000;12.074;2024-03-02T08:12:09;6.00;99.90
3628;DHT22;1830;49.000;12.074;2024-03-02T08:14:36;6.10;99.90
3628;DHT22;1830;49.000;12.074;2024-03-02T08:17:03;6.10;99.90
3628;DHT22;1830;49.000;12.074;2024-03-02T08:19:35;6.10;99.90
3628;DHT22;1830;49.000;12.074;2024-03-02T08:22:03;6.00;99.90
3628;DHT22;1830;49.000;12.074;2024-03-02T08:24:30;6.00;99.90
3628;DHT22;1830;49.000;12.074;2024-03-02T08:26:58;6.10;99.90
3628;DHT22;1830;49.000;12.074;2024-03-02T08:29:25;6.20;99.90
3628;DHT22;1830;49.000;12.074;2024-03-02T08:31:53;6.20;99.90
3628;DHT22;1830;49.000;12.074;2024-03-02T08:34:20;6.20;99.90
3628;DHT22;1830;49.000;12.074;2024-03-02T08:36:47;6.20;99.90
3628;DHT22;1830;49.000;12.074;2024-03-02T08:39:15;6.30;99.90
3628;DHT22;1830;49.000;12.074;2024-03-02T08:41:42;6.40;99.90
3628;DHT22;1830;49.000;12.074;2024-03-02T08:44:09;6.40;99.90
3628;DHT22;1830;49.000;12.074;2024-03-02T08:46:36;6.50;99.90
3628;DHT22;1830;49.000;12.074;2024-03-02T08:49:04;6.60;99.90
3628;DHT22;1830;49.000;12.074;2024-03-02T08:51:34;6.70;99.90
3628;DHT22;1830;49.000;12.074;2024-03-02T08:54:03;6.70;99.90
3628;DHT22;1830;49.000;12.074;2024-03-02T08:56:32;6.70;99.90
3628;DHT22;1830;49.000;12.074;2024-03-02T08:58:59;6.80;99.90
3628;DHT22;1830;49.000;12.074;2024-03-02T09:01:27;6.80;99.90
3628;DHT22;1830;49.000;12.074;2024-03-02T09:03:54;6.90;99.90
3628;DHT22;1830;49.000;12.074;2024-03-02T09:06:21;6.90;99.90
3628;DHT22;1830;49.000;12.074;2024-03-02T09:08:50;6.90;99.90
3628;DHT22;1830;49.000;12.074;2024-03-02T09:11:19;6.90;99.90
3628;DHT22;1830;49.000;12.074;2024-03-02T09:13:50;7.00;99.90
3628;DHT22;1830;49.000;12.074;2024-03-02T09:16:21;7.10;99.90
3628;DHT22;1830;49.000;12.074;2024-03-02T09:18:50;7.10;99.90
3628;DHT22;1830;49.000;12.074;2024-03-02T09:21:19;7.10;99.90
3628;DHT22;1830;49.000;12.074;2024-03-02T09:23:48;7.10;99.90
3628;DHT22;1830;49.000;12.074;2024-03-02T09:26:25;7.10;99.90
3628;DHT22;1830;49.000;12.074;2024-03-02T09:28:59;7.20;99.90
3628;DHT22;1830;49.000;12.074;2024-03-02T09:31:33;7.20;99.90
3628;DHT22;1830;49.000;12.074;2024-03-02T09:34:10;7.20;99.90
3628;DHT22;1830;49.000;12.074;2024-03-02T09:36:39;7.20;99.90
3628;DHT22;1830;49.000;12.074;2024-03-02T09:39:09;7.30;99.90
3628;DHT22;1830;49.000;12.074;2024-03-02T09:41:43;7.30;99.90
3628;DHT22;1830;49.000;12.074;2024-03-02T09:44:15;7.30;99.90
3628;DHT22;1830;49.000;12.074;2024-03-02T09:47:06;7.30;99.90
3628;DHT22;1830;49.000;12.074;2024-03-02T09:49:34;7.40;99.90
3628;DHT22;1830;49.000;12.074;2024-03-02T09:52:06;7.50;99.90
3628;DHT22;1830;49.000;12.074;2024-03-02T09:54:34;7.60;99.90
3628;DHT22;1830;49.000;12.074;2024-03-02T09:57:02;7.60;99.90
3628;DHT22;1830;49.000;12.074;2024-03-02T09:59:31;7.60;99.90
3628;DHT22;1830;49.000;12.074;2024-03-02T10:01:58;7.70;99.90
3628;DHT22;1830;49.000;12.074;2024-03-02T10:04:26;7.70;99.90
3628;DHT22;1830;49.000;12.074;2024-03-02T10:07:09;7.60;99.90
3628;DHT22;1830;49.000;12.074;2024-03-02T10:09:40;7.60;99.90
3628;DHT22;1830;49.000;12.074;2024-03-02T10:12:08;7.70;99.90
3628;DHT22;1830;49.000;12.074;2024-03-02T10:14:40;7.70;99.90
3628;DHT22;1830;49.000;12.074;2024-03-02T10:17:08;7.60;99.90
3628;DHT22;1830;49.000;12.074;2024-03-02T10:19:36;7.70;99.90
3628;DHT22;1830;49.000;12.074;2024-03-02T10:22:05;7.70;99.90
3628;DHT22;1830;49.000;12.074;2024-03-02T10:24:36;7.60;99.90
3628;DHT22;1830;49.000;12.074;2024-03-02T10:27:10;7.70;99.90
3628;DHT22;1830;49.000;12.074;2024-03-02T10:29:39;7.60;99.90
3628;DHT22;1830;49.000;12.074;2024-03-02T10:32:09;7.70;99.90
3628;DHT22;1830;49.000;12.074;2024-03-02T10:34:40;7.70;99.90
3628;DHT22;1830;49.000;12.074;2024-03-02T10:37:14;7.80;99.90
3628;DHT22;1830;49.000;12.074;2024-03-02T10:39:45;8.00;99.90
3628;DHT22;1830;49.000;12.074;2024-03-02T10:42:19;7.90;99.90
3628;DHT22;1830;49.000;12.074;2024-03-02T10:44:52;8.00;99.90
3628;DHT22;1830;49.000;12.074;2024-03-02T10:47:32;8.10;99.90
3628;DHT22;1830;49.000;12.074;2024-03-02T10:50:04;8.00;99.90
3628;DHT22;1830;49.000;12.074;2024-03-02T10:52:34;8.10;99.90
3628;DHT22;1830;49.000;12.074;2024-03-02T10:55:08;8.10;99.90
3628;DHT22;1830;49.000;12.074;2024-03-02T10:57:45;8.20;99.90
3628;DHT22;1830;49.000;12.074;2024-03-02T11:00:19;8.20;99.90
3628;DHT22;1830;49.000;12.074;2024-03-02T11:02:51;8.50;99.90
3628;DHT22;1830;49.000;12.074;2024-03-02T11:05:26;8.60;99.90
3628;DHT22;1830;49.000;12.074;2024-03-02T11:07:57;8.60;99.90
3628;DHT22;1830;49.000;12.074;2024-03-02T11:10:30;8.60;99.90
3628;DHT22;1830;49.000;12.074;2024-03-02T11:13:02;8.60;99.90
3628;DHT22;1830;49.000;12.074;2024-03-02T11:15:34;8.60;99.90
3628;DHT22;1830;49.000;12.074;2024-03-02T11:18:24;8.70;99.90
3628;DHT22;1830;49.000;12.074;2024-03-02T11:20:54;8.50;99.90
3628;DHT22;1830;49.000;12.074;2024-03-02T11:23:37;8.60;99.90
3628;DHT22;1830;49.000;12.074;2024-03-02T11:26:17;8.70;99.90
3628;DHT22;1830;49.000;12.074;2024-03-02T11:28:46;8.70;99.90
3628;DHT22;1830;49.000;12.074;2024-03-02T11:31:15;8.70;99.90
3628;DHT22;1830;49.000;12.074;2024-03-02T11:33:44;8.80;99.90
3628;DHT22;1830;49.000;12.074;2024-03-02T11:36:11;8.80;99.90
3628;DHT22;1830;49.000;12.074;2024-03-02T11:38:38;8.80;99.90
3628;DHT22;1830;49.000;12.074;2024-03-02T11:41:07;8.80;99.90
3628;DHT22;1830;49.000;12.074;2024-03-02T11:43:37;8.90;99.90
3628;DHT22;1830;49.000;12.074;2024-03-02T11:46:06;8.90;99.90
3628;DHT22;1830;49.000;12.074;2024-03-02T11:48:38;8.90;99.90
3628;DHT22;1830;49.000;12.074;2024-03-02T11:51:06;8.90;99.90
3628;DHT22;1830;49.000;12.074;2024-03-02T11:53:35;8.80;99.90
3628;DHT22;1830;49.000;12.074;2024-03-02T11:56:06;8.80;99.90
3628;DHT22;1830;49.000;12.074;2024-03-02T11:58:36;8.90;99.90
3628;DHT22;1830;49.000;12.074;2024-03-02T12:01:03;8.90;99.90
3628;DHT22;1830;49.000;12.074;2024-03-02T12:03:32;9.10;99.90
3628;DHT22;1830;49.000;12.074;2024-03-02T12:06:02;9.10;99.90
3628;DHT22;1830;49.000;12.074;2024-03-02T12:08:31;9.10;99.90
3628;DHT22;1830;49.000;12.074;2024-03-02T12:10:59;9.10;99.90
3628;DHT22;1830;49.000;12.074;2024-03-02T12:13:26;9.10;99.90
3628;DHT22;1830;49.000;12.074;2024-03-02T12:15:54;9.30;99.90
3628;DHT22;1830;49.000;12.074;2024-03-02T12:18:21;9.30;99.90
3628;DHT22;1830;49.000;12.074;2024-03-02T12:20:49;9.30;99.90
3628;DHT22;1830;49.000;12.074;2024-03-02T12:23:19;9.30;99.90
3628;DHT22;1830;49.000;12.074;2024-03-02T12:25:46;9.30;99.90
3628;DHT22;1830;49.000;12.074;2024-03-02T12:28:13;9.20;99.90
3628;DHT22;1830;49.000;12.074;2024-03-02T12:30:40;9.20;99.90
3628;DHT22;1830;49.000;12.074;2024-03-02T12:33:07;9.10;99.90
3628;DHT22;1830;49.000;12.074;2024-03-02T12:35:43;9.30;99.90
3628;DHT22;1830;49.000;12.074;2024-03-02T12:38:14;9.50;99.90
3628;DHT22;1830;49.000;12.074;2024-03-02T12:40:42;9.50;99.90
3628;DHT22;1830;49.000;12.074;2024-03-02T12:43:09;9.90;99.90
3628;DHT22;1830;49.000;12.074;2024-03-02T12:45:36;9.90;99.90
3628;DHT22;1830;49.000;12.074;2024-03-02T12:48:04;9.90;99.90
3628;DHT22;1830;49.000;12.074;2024-03-02T12:50:32;9.90;99.90
3628;DHT22;1830;49.000;12.074;2024-03-02T12:52:59;10.00;99.90
3628;DHT22;1830;49.000;12.074;2024-03-02T12:55:26;10.00;99.90
3628;DHT22;1830;49.000;12.074;2024-03-02T12:57:55;10.00;99.90
3628;DHT22;1830;49.000;12.074;2024-03-02T13:00:22;9.90;99.90
3628;DHT22;1830;49.000;12.074;2024-03-02T13:02:50;9.80;99.90
3628;DHT22;1830;49.000;12.074;2024-03-02T13:05:17;9.70;99.90
3628;DHT22;1830;49.000;12.074;2024-03-02T13:07:46;10.20;99.90
3628;DHT22;1830;49.000;12.074;2024-03-02T13:10:13;10.40;99.90
3628;DHT22;1830;49.000;12.074;2024-03-02T13:12:40;10.50;99.90
3628;DHT22;1830;49.000;12.074;2024-03-02T13:15:08;10.50;99.90
3628;DHT22;1830;49.000;12.074;2024-03-02T13:17:35;10.60;99.90
3628;DHT22;1830;49.000;12.074;2024-03-02T13:20:03;10.60;99.90
3628;DHT22;1830;49.000;12.074;2024-03-02T13:22:33;10.60;99.90
3628;DHT22;1830;49.000;12.074;2024-03-02T13:25:00;10.50;99.90
3628;DHT22;1830;49.000;12.074;2024-03-02T13:27:29;10.80;99.90
3628;DHT22;1830;49.000;12.074;2024-03-02T13:29:56;10.90;99.90
3628;DHT22;1830;49.000;12.074;2024-03-02T13:32:24;10.90;99.90
3628;DHT22;1830;49.000;12.074;2024-03-02T13:34:51;10.90;99.90
3628;DHT22;1830;49.000;12.074;2024-03-02T13:37:19;10.60;99.90
3628;DHT22;1830;49.000;12.074;2024-03-02T13:39:46;10.30;99.90
3628;DHT22;1830;49.000;12.074;2024-03-02T13:42:13;10.20;99.90
3628;DHT22;1830;49.000;12.074;2024-03-02T13:44:41;10.10;99.90
3628;DHT22;1830;49.000;12.074;2024-03-02T13:47:11;10.10;99.90
3628;DHT22;1830;49.000;12.074;2024-03-02T13:49:39;10.00;99.90
3628;DHT22;1830;49.000;12.074;2024-03-02T13:52:09;9.90;99.90
3628;DHT22;1830;49.000;12.074;2024-03-02T13:54:38;9.90;99.90
3628;DHT22;1830;49.000;12.074;2024-03-02T13:57:05;9.80;99.90
3628;DHT22;1830;49.000;12.074;2024-03-02T13:59:32;9.80;99.90
3628;DHT22;1830;49.000;12.074;2024-03-02T14:01:59;9.90;99.90
3628;DHT22;1830;49.000;12.074;2024-03-02T14:04:26;10.00;99.90
3628;DHT22;1830;49.000;12.074;2024-03-02T14:06:54;10.30;99.90
3628;DHT22;1830;49.000;12.074;2024-03-02T14:09:22;10.40;99.90
3628;DHT22;1830;49.000;12.074;2024-03-02T14:11:50;10.40;99.90
3628;DHT22;1830;49.000;12.074;2024-03-02T14:14:17;10.20;99.90
3628;DHT22;1830;49.000;12.074;2024-03-02T14:16:44;10.10;99.90
3628;DHT22;1830;49.000;12.074;2024-03-02T14:19:11;10.30;99.90
3628;DHT22;1830;49.000;12.074;2024-03-02T14:21:39;10.20;99.90
3628;DHT22;1830;49.000;12.074;2024-03-02T14:24:07;10.20;99.90
3628;DHT22;1830;49.000;12.074;2024-03-02T14:26:35;10.00;99.90
3628;DHT22;1830;49.000;12.074;2024-03-02T14:29:02;10.00;99.90
3628;DHT22;1830;49.000;12.074;2024-03-02T14:31:29;10.00;99.90
3628;DHT22;1830;49.000;12.074;2024-03-02T14:33:56;10.00;99.90
3628;DHT22;1830;49.000;12.074;2024-03-02T14:36:23;10.10;99.90
3628;DHT22;1830;49.000;12.074;2024-03-02T14:38:51;10.10;99.90
3628;DHT22;1830;49.000;12.074;2024-03-02T14:41:19;10.10;99.90
3628;DHT22;1830;49.000;12.074;2024-03-02T14:43:46;10.10;99.90
3628;DHT22;1830;49.000;12.074;2024-03-02T14:46:13;10.20;99.90
3628;DHT22;1830;49.000;12.074;2024-03-02T14:48:39;10.30;99.90
3628;DHT22;1830;49.000;12.074;2024-03-02T14:51:06;10.30;99.90
3628;DHT22;1830;49.000;12.074;2024-03-02T14:53:33;10.40;99.90
3628;DHT22;1830;49.000;12.074;2024-03-02T14:56:01;10.50;99.90
3628;DHT22;1830;49.000;12.074;2024-03-02T14:58:29;10.50;99.90
3628;DHT22;1830;49.000;12.074;2024-03-02T15:00:55;10.50;99.90
3628;DHT22;1830;49.000;12.074;2024-03-02T15:03:22;10.50;99.90
3628;DHT22;1830;49.000;12.074;2024-03-02T15:05:49;10.70;99.90
3628;DHT22;1830;49.000;12.074;2024-03-02T15:08:17;10.70;99.90
3628;DHT22;1830;49.000;12.074;2024-03-02T15:10:44;10.80;99.90
3628;DHT22;1830;49.000;12.074;2024-03-02T15:13:11;10.80;99.90
3628;DHT22;1830;49.000;12.074;2024-03-02T15:15:39;10.90;99.90
3628;DHT22;1830;49.000;12.074;2024-03-02T15:18:07;10.90;99.90
3628;DHT22;1830;49.000;12.074;2024-03-02T15:20:34;11.00;99.90
3628;DHT22;1830;49.000;12.074;2024-03-02T15:23:01;11.00;99.90
3628;DHT22;1830;49.000;12.074;2024-03-02T15:25:28;10.80;99.90
3628;DHT22;1830;49.000;12.074;2024-03-02T15:27:56;10.80;99.90
3628;DHT22;1830;49.000;12.074;2024-03-02T15:30:23;10.70;99.90
3628;DHT22;1830;49.000;12.074;2024-03-02T15:32:51;10.70;99.90
3628;DHT22;1830;49.000;12.074;2024-03-02T15:35:18;10.80;99.90
3628;DHT22;1830;49.000;12.074;2024-03-02T15:37:44;10.80;99.90
3628;DHT22;1830;49.000;12.074;2024-03-02T15:40:11;10.90;99.90
3628;DHT22;1830;49.000;12.074;2024-03-02T15:42:38;10.90;99.90
3628;DHT22;1830;49.000;12.074;2024-03-02T15:45:05;10.90;99.90
3628;DHT22;1830;49.000;12.074;2024-03-02T15:47:32;11.00;99.90
3628;DHT22;1830;49.000;12.074;2024-03-02T15:50:03;10.90;99.90
3628;DHT22;1830;49.000;12.074;2024-03-02T15:52:30;10.80;99.90
3628;DHT22;1830;49.000;12.074;2024-03-02T15:54:56;10.80;99.90
3628;DHT22;1830;49.000;12.074;2024-03-02T15:57:23;10.80;99.90
3628;DHT22;1830;49.000;12.074;2024-03-02T15:59:51;10.80;99.90
3628;DHT22;1830;49.000;12.074;2024-03-02T16:02:17;10.80;99.90
3628;DHT22;1830;49.000;12.074;2024-03-02T16:04:46;10.80;99.90
3628;DHT22;1830;49.000;12.074;2024-03-02T16:07:14;10.70;99.90
3628;DHT22;1830;49.000;12.074;2024-03-02T16:09:41;10.70;99.90